首页
METAR-TAF:

METAR-TAF

机场 :

雅蒲島國際機場

雅蒲島, 密克罗尼西亚群岛

纬度: 09-29N, 经度: 138-05E, 海拔: 28米

当前天气观测

该预报发布于57分钟前的12:50 UTC
风速5节,风向多变
温度 28°C
湿度 84%
气压 1009 hPa
能見度: 19.3公里
少量云层高于1600英尺
多云层高于30000英尺

METAR: PTYA 181250Z VRB05KT 12SM FEW016 BKN300 28/25 A2981 RMK SLP096 T02840250

时间: 23:47 (13:47 UTC)

预报

该预报发布于2小时和18分钟前的11:29 UTC
预报有效从18日的 12点(UTC)到 19日的 12点(UTC)
风速9节,风向东转东北
能見度: 10公里
散云层高于1600英尺

TAF: PTYA 181129Z 1812/1912 07009KT P6SM SCT016

超过4000个机场的气象观测和天气预报(METAR&TAF报告)。

可查询的气象台以黄色和红色小点在地图上表示。

将鼠标移到小点上方,可查看气象台名称。

然后点击查看天气观测和预报。

如需切换地图:点击带黑十字的绿色按钮放大地图;点击带横线的绿色按钮缩小地图;或者点击绿色箭头查看邻近地区的地图。


METAR-TAF: